x

Stannard Rock, Mi (stdm4) Weather Station

10:00am - Fri 24th Feb 2017 All times are CST. -6 hours from GMT.

  • Wind
    23mph, 28mph gusts
  • Air Temp 22°f
  • Sea Pressure 1013mb
  • Stannard Rock, Mi
  • Stannard Rock, Mi

More Historic Weather Station data

Upgrade to MSW Pro to gain access to the past 30 days of data for over 8000 Wavebouys and Weather Stations around the globe.

Join Pro

Comparision Forecast

View Surf forecast
   
Fri 02/24 10:00am 23 28 mph 1013mb 22f
9:00am 17 20 mph 1014.3mb 22f
8:00am 20 22 mph 1014.4mb 23f
7:00am 18 22 mph 1015.2mb 22f
6:00am 22 24 mph 1014.7mb 22f
5:00am 23 25 mph 1014.9mb 23f
4:00am 23 26 mph 1015.3mb 24f
3:00am 23 25 mph 1016mb 25f
2:00am 26 29 mph 1016mb 26f
1:00am 22 25 mph 1016.2mb 28f
12:00am 20 21 mph 1016mb 29f
Thu 02/23 11:00pm 18 21 mph 1015.3mb 31f
10:00pm 13 14 mph 1015.3mb 32f
9:00pm 16 17 mph 1015.2mb 32f
8:00pm 14 16 mph 1014.5mb 32f
7:00pm 15 17 mph 1014.7mb 32f
6:00pm 16 17 mph 1014.3mb 32f
5:00pm 14 15 mph 1013.4mb 33f
4:00pm 13 15 mph 1012.8mb 33f
3:00pm 15 16 mph 1012.6mb 33f
2:00pm 18 21 mph 1012.2mb 33f
1:00pm 11 13 mph 1012.1mb 33f
12:00pm 11 13 mph 1011.8mb 33f
11:00am 15 17 mph 1012.1mb 33f
10:00am 21 23 mph 1011.6mb 33f
9:00am 21 22 mph 1011.6mb 33f
8:00am 25 26 mph 1010.3mb 34f
7:00am 26 30 mph 1009.7mb 34f
6:00am 25 29 mph 1008.8mb 34f
5:00am 29 31 mph 1007.9mb 34f
4:00am 29 31 mph 1007.1mb 35f
Wed 02/22 4:00am 22 23 mph 1003.4mb 42f
3:00am 17 18 mph 1004.2mb 40f
2:00am 25
mph
1004.2mb 45f
1:00am 24
mph
1004.7mb 47f
12:00am 23
mph
1004.7mb 50f
Tue 02/21 11:00pm 20 21 mph 1005.5mb 43f
10:00pm 18 20 mph 1006.4mb 41f
9:00pm 18 20 mph 1007.2mb 38f
8:00pm 17 18 mph 1007.4mb 42f
7:00pm 14
mph
1007.9mb 44f
6:00pm 9
mph
1008.2mb 43f
5:00pm 14 15 mph 1008.1mb 47f
4:00pm 20
mph
1008.6mb 46f
3:00pm 17 18 mph 1008.7mb 44f
2:00pm 21 22 mph 1008.7mb 40f
1:00pm 17 18 mph 1008.9mb 38f
12:00pm 18 20 mph 1009mb 37f
11:00am 20 22 mph 1008.7mb 37f
10:00am 23 25 mph 1008.3mb 37f
9:00am 29 31 mph 1007.5mb 37f
8:00am 31 34 mph 1006.7mb 37f
7:00am 32 37 mph 1006.3mb 38f
6:00am 37 41 mph 1004.9mb 39f
5:00am 36 39 mph 1003.7mb 41f
4:00am 32 37 mph 1002.3mb 41f
3:00am 37 40 mph 1001.5mb 40f
2:00am 38 40 mph 1002.3mb 40f
1:00am 40 46 mph 1003.2mb 40f
12:00am 41 45 mph 1003.8mb 40f
Mon 02/20 11:00pm 39 43 mph 1005.6mb 39f
10:00pm 41 46 mph 1006.6mb 40f
9:00pm 34 38 mph 1008.2mb 39f
8:00pm 33 37 mph 1009.6mb 38f
7:00pm 36 38 mph 1010.2mb 38f
6:00pm 31 34 mph 1012.5mb 39f